sensor_id;sensor_type;location;lat;lon;timestamp;P1;durP1;ratioP1;P2;durP2;ratioP2
46363;SDS011;32071;49.036;9.344;2024-02-28T00:00:27;33.13;;;18.90;;
46363;SDS011;32071;49.036;9.344;2024-02-28T00:02:52;27.47;;;16.17;;
46363;SDS011;32071;49.036;9.344;2024-02-28T00:05:18;30.43;;;17.70;;
46363;SDS011;32071;49.036;9.344;2024-02-28T00:07:44;29.60;;;17.10;;
46363;SDS011;32071;49.036;9.344;2024-02-28T00:10:10;28.63;;;16.00;;
46363;SDS011;32071;49.036;9.344;2024-02-28T00:12:36;28.23;;;15.43;;
46363;SDS011;32071;49.036;9.344;2024-02-28T00:15:04;31.23;;;17.40;;
46363;SDS011;32071;49.036;9.344;2024-02-28T00:17:30;25.50;;;16.40;;
46363;SDS011;32071;49.036;9.344;2024-02-28T00:19:55;30.53;;;16.00;;
46363;SDS011;32071;49.036;9.344;2024-02-28T00:22:21;31.10;;;16.03;;
46363;SDS011;32071;49.036;9.344;2024-02-28T00:24:47;27.40;;;15.43;;
46363;SDS011;32071;49.036;9.344;2024-02-28T00:27:13;26.60;;;16.03;;
46363;SDS011;32071;49.036;9.344;2024-02-28T00:29:38;28.33;;;16.77;;
46363;SDS011;32071;49.036;9.344;2024-02-28T00:32:04;34.77;;;18.60;;
46363;SDS011;32071;49.036;9.344;2024-02-28T00:34:30;32.20;;;17.77;;
46363;SDS011;32071;49.036;9.344;2024-02-28T00:36:55;25.63;;;16.67;;
46363;SDS011;32071;49.036;9.344;2024-02-28T00:39:21;29.00;;;17.07;;
46363;SDS011;32071;49.036;9.344;2024-02-28T00:41:47;33.67;;;18.30;;
46363;SDS011;32071;49.036;9.344;2024-02-28T00:44:13;30.53;;;17.77;;
46363;SDS011;32071;49.036;9.344;2024-02-28T00:46:39;28.10;;;15.87;;
46363;SDS011;32071;49.036;9.344;2024-02-28T00:49:04;30.67;;;17.73;;
46363;SDS011;32071;49.036;9.344;2024-02-28T00:51:30;29.40;;;16.33;;
46363;SDS011;32071;49.036;9.344;2024-02-28T00:53:55;27.80;;;17.53;;
46363;SDS011;32071;49.036;9.344;2024-02-28T00:56:21;31.30;;;17.30;;
46363;SDS011;32071;49.036;9.344;2024-02-28T00:58:47;29.30;;;18.10;;
46363;SDS011;32071;49.036;9.344;2024-02-28T01:01:12;34.63;;;17.87;;
46363;SDS011;32071;49.036;9.344;2024-02-28T01:03:38;33.47;;;17.47;;
46363;SDS011;32071;49.036;9.344;2024-02-28T01:06:04;24.93;;;16.83;;
46363;SDS011;32071;49.036;9.344;2024-02-28T01:08:29;31.53;;;18.03;;
46363;SDS011;32071;49.036;9.344;2024-02-28T01:10:55;29.80;;;17.10;;
46363;SDS011;32071;49.036;9.344;2024-02-28T01:13:21;29.23;;;17.83;;
46363;SDS011;32071;49.036;9.344;2024-02-28T01:15:46;28.50;;;16.87;;
46363;SDS011;32071;49.036;9.344;2024-02-28T01:18:12;31.83;;;18.40;;
46363;SDS011;32071;49.036;9.344;2024-02-28T01:20:37;30.33;;;17.60;;
46363;SDS011;32071;49.036;9.344;2024-02-28T01:23:03;32.77;;;17.50;;
46363;SDS011;32071;49.036;9.344;2024-02-28T01:25:29;30.90;;;17.33;;
46363;SDS011;32071;49.036;9.344;2024-02-28T01:27:55;29.77;;;17.60;;
46363;SDS011;32071;49.036;9.344;2024-02-28T01:30:23;28.20;;;16.50;;
46363;SDS011;32071;49.036;9.344;2024-02-28T01:32:49;32.80;;;18.27;;
46363;SDS011;32071;49.036;9.344;2024-02-28T01:35:14;33.10;;;19.47;;
46363;SDS011;32071;49.036;9.344;2024-02-28T01:37:40;29.50;;;17.30;;
46363;SDS011;32071;49.036;9.344;2024-02-28T01:40:05;29.17;;;17.97;;
46363;SDS011;32071;49.036;9.344;2024-02-28T01:42:31;32.07;;;18.53;;
46363;SDS011;32071;49.036;9.344;2024-02-28T01:44:57;29.60;;;17.43;;
46363;SDS011;32071;49.036;9.344;2024-02-28T01:47:23;30.90;;;17.50;;
46363;SDS011;32071;49.036;9.344;2024-02-28T01:49:49;29.80;;;16.83;;
46363;SDS011;32071;49.036;9.344;2024-02-28T01:52:15;29.80;;;17.20;;
46363;SDS011;32071;49.036;9.344;2024-02-28T01:54:42;30.13;;;17.80;;
46363;SDS011;32071;49.036;9.344;2024-02-28T01:57:08;31.70;;;17.47;;
46363;SDS011;32071;49.036;9.344;2024-02-28T01:59:34;28.73;;;17.47;;
46363;SDS011;32071;49.036;9.344;2024-02-28T02:02:01;30.67;;;17.67;;
46363;SDS011;32071;49.036;9.344;2024-02-28T02:04:27;31.10;;;17.53;;
46363;SDS011;32071;49.036;9.344;2024-02-28T02:06:52;32.13;;;17.97;;
46363;SDS011;32071;49.036;9.344;2024-02-28T02:09:19;28.80;;;17.17;;
46363;SDS011;32071;49.036;9.344;2024-02-28T02:11:45;29.57;;;17.07;;
46363;SDS011;32071;49.036;9.344;2024-02-28T02:14:10;33.87;;;18.73;;
46363;SDS011;32071;49.036;9.344;2024-02-28T02:16:36;33.23;;;18.60;;
46363;SDS011;32071;49.036;9.344;2024-02-28T02:19:01;30.67;;;18.10;;
46363;SDS011;32071;49.036;9.344;2024-02-28T02:21:31;32.40;;;18.27;;
46363;SDS011;32071;49.036;9.344;2024-02-28T02:24:02;31.20;;;17.63;;
46363;SDS011;32071;49.036;9.344;2024-02-28T02:26:28;30.33;;;17.00;;
46363;SDS011;32071;49.036;9.344;2024-02-28T02:28:53;31.13;;;18.63;;
46363;SDS011;32071;49.036;9.344;2024-02-28T02:31:19;34.20;;;20.07;;
46363;SDS011;32071;49.036;9.344;2024-02-28T02:33:45;32.73;;;18.00;;
46363;SDS011;32071;49.036;9.344;2024-02-28T02:36:10;33.80;;;16.47;;
46363;SDS011;32071;49.036;9.344;2024-02-28T02:38:36;29.20;;;17.20;;
46363;SDS011;32071;49.036;9.344;2024-02-28T02:41:01;31.80;;;18.07;;
46363;SDS011;32071;49.036;9.344;2024-02-28T02:43:27;31.50;;;16.73;;
46363;SDS011;32071;49.036;9.344;2024-02-28T02:45:52;31.87;;;17.40;;
46363;SDS011;32071;49.036;9.344;2024-02-28T02:48:18;32.57;;;17.37;;
46363;SDS011;32071;49.036;9.344;2024-02-28T02:50:44;29.10;;;16.80;;
46363;SDS011;32071;49.036;9.344;2024-02-28T02:53:10;35.43;;;18.03;;
46363;SDS011;32071;49.036;9.344;2024-02-28T02:55:36;33.47;;;18.90;;
46363;SDS011;32071;49.036;9.344;2024-02-28T02:58:01;31.63;;;18.27;;
46363;SDS011;32071;49.036;9.344;2024-02-28T03:00:27;30.03;;;18.20;;
46363;SDS011;32071;49.036;9.344;2024-02-28T03:02:53;28.70;;;16.90;;
46363;SDS011;32071;49.036;9.344;2024-02-28T03:05:19;32.37;;;18.77;;
46363;SDS011;32071;49.036;9.344;2024-02-28T03:07:44;26.73;;;17.07;;
46363;SDS011;32071;49.036;9.344;2024-02-28T03:10:10;32.50;;;19.43;;
46363;SDS011;32071;49.036;9.344;2024-02-28T03:12:35;32.87;;;18.80;;
46363;SDS011;32071;49.036;9.344;2024-02-28T03:15:01;31.93;;;17.90;;
46363;SDS011;32071;49.036;9.344;2024-02-28T03:17:28;32.30;;;17.73;;
46363;SDS011;32071;49.036;9.344;2024-02-28T03:19:53;30.87;;;18.00;;
46363;SDS011;32071;49.036;9.344;2024-02-28T03:22:19;29.97;;;17.60;;
46363;SDS011;32071;49.036;9.344;2024-02-28T03:24:45;31.23;;;17.10;;
46363;SDS011;32071;49.036;9.344;2024-02-28T03:27:11;29.93;;;16.83;;
46363;SDS011;32071;49.036;9.344;2024-02-28T03:29:36;29.80;;;17.57;;
46363;SDS011;32071;49.036;9.344;2024-02-28T03:32:02;31.63;;;18.17;;
46363;SDS011;32071;49.036;9.344;2024-02-28T03:34:28;28.10;;;16.40;;
46363;SDS011;32071;49.036;9.344;2024-02-28T03:36:54;30.37;;;18.70;;
46363;SDS011;32071;49.036;9.344;2024-02-28T03:39:20;30.57;;;18.40;;
46363;SDS011;32071;49.036;9.344;2024-02-28T03:41:45;34.90;;;19.53;;
46363;SDS011;32071;49.036;9.344;2024-02-28T03:44:11;34.47;;;18.97;;
46363;SDS011;32071;49.036;9.344;2024-02-28T03:46:37;31.53;;;17.37;;
46363;SDS011;32071;49.036;9.344;2024-02-28T03:49:02;30.43;;;16.90;;
46363;SDS011;32071;49.036;9.344;2024-02-28T03:51:28;28.80;;;17.43;;
46363;SDS011;32071;49.036;9.344;2024-02-28T03:53:54;29.10;;;17.23;;
46363;SDS011;32071;49.036;9.344;2024-02-28T03:56:23;30.10;;;17.07;;
46363;SDS011;32071;49.036;9.344;2024-02-28T03:58:52;31.50;;;17.73;;
46363;SDS011;32071;49.036;9.344;2024-02-28T04:01:18;35.20;;;17.90;;
46363;SDS011;32071;49.036;9.344;2024-02-28T04:03:44;30.80;;;18.17;;
46363;SDS011;32071;49.036;9.344;2024-02-28T04:06:10;30.17;;;18.17;;
46363;SDS011;32071;49.036;9.344;2024-02-28T04:08:36;29.60;;;17.93;;
46363;SDS011;32071;49.036;9.344;2024-02-28T04:11:02;27.83;;;17.10;;
46363;SDS011;32071;49.036;9.344;2024-02-28T04:13:28;33.17;;;17.47;;
46363;SDS011;32071;49.036;9.344;2024-02-28T04:15:53;27.23;;;15.90;;
46363;SDS011;32071;49.036;9.344;2024-02-28T04:18:19;29.23;;;17.13;;
46363;SDS011;32071;49.036;9.344;2024-02-28T04:20:45;27.10;;;17.07;;
46363;SDS011;32071;49.036;9.344;2024-02-28T04:23:10;30.70;;;17.80;;
46363;SDS011;32071;49.036;9.344;2024-02-28T04:25:36;28.53;;;17.77;;
46363;SDS011;32071;49.036;9.344;2024-02-28T04:28:05;32.10;;;17.23;;
46363;SDS011;32071;49.036;9.344;2024-02-28T04:30:31;27.40;;;16.17;;
46363;SDS011;32071;49.036;9.344;2024-02-28T04:32:56;30.30;;;17.90;;
46363;SDS011;32071;49.036;9.344;2024-02-28T04:35:22;30.00;;;17.07;;
46363;SDS011;32071;49.036;9.344;2024-02-28T04:37:47;26.60;;;16.87;;
46363;SDS011;32071;49.036;9.344;2024-02-28T04:40:13;28.77;;;17.07;;
46363;SDS011;32071;49.036;9.344;2024-02-28T04:42:39;35.40;;;18.77;;
46363;SDS011;32071;49.036;9.344;2024-02-28T04:45:05;31.17;;;17.77;;
46363;SDS011;32071;49.036;9.344;2024-02-28T04:47:31;30.70;;;17.17;;
46363;SDS011;32071;49.036;9.344;2024-02-28T04:49:56;31.07;;;18.33;;
46363;SDS011;32071;49.036;9.344;2024-02-28T04:52:22;28.20;;;17.27;;
46363;SDS011;32071;49.036;9.344;2024-02-28T04:54:49;31.90;;;17.60;;
46363;SDS011;32071;49.036;9.344;2024-02-28T04:57:15;29.23;;;17.43;;
46363;SDS011;32071;49.036;9.344;2024-02-28T04:59:41;31.50;;;17.90;;
46363;SDS011;32071;49.036;9.344;2024-02-28T05:02:08;29.73;;;17.40;;
46363;SDS011;32071;49.036;9.344;2024-02-28T05:04:33;33.03;;;17.37;;
46363;SDS011;32071;49.036;9.344;2024-02-28T05:06:59;33.70;;;18.63;;
46363;SDS011;32071;49.036;9.344;2024-02-28T05:09:24;28.80;;;17.27;;
46363;SDS011;32071;49.036;9.344;2024-02-28T05:11:50;28.73;;;17.00;;
46363;SDS011;32071;49.036;9.344;2024-02-28T05:14:16;31.80;;;17.57;;
46363;SDS011;32071;49.036;9.344;2024-02-28T05:16:41;29.30;;;17.67;;
46363;SDS011;32071;49.036;9.344;2024-02-28T05:19:07;35.20;;;17.90;;
46363;SDS011;32071;49.036;9.344;2024-02-28T05:21:38;31.00;;;17.23;;
46363;SDS011;32071;49.036;9.344;2024-02-28T05:24:05;30.07;;;16.93;;
46363;SDS011;32071;49.036;9.344;2024-02-28T05:26:31;29.37;;;17.37;;
46363;SDS011;32071;49.036;9.344;2024-02-28T05:28:59;30.10;;;18.30;;
46363;SDS011;32071;49.036;9.344;2024-02-28T05:31:25;30.97;;;17.40;;
46363;SDS011;32071;49.036;9.344;2024-02-28T05:33:52;30.83;;;18.50;;
46363;SDS011;32071;49.036;9.344;2024-02-28T05:36:19;33.97;;;18.50;;
46363;SDS011;32071;49.036;9.344;2024-02-28T05:38:45;31.33;;;17.00;;
46363;SDS011;32071;49.036;9.344;2024-02-28T05:41:11;27.43;;;16.10;;
46363;SDS011;32071;49.036;9.344;2024-02-28T05:43:37;32.40;;;17.97;;
46363;SDS011;32071;49.036;9.344;2024-02-28T05:46:03;30.80;;;17.57;;
46363;SDS011;32071;49.036;9.344;2024-02-28T05:48:29;31.53;;;16.53;;
46363;SDS011;32071;49.036;9.344;2024-02-28T05:50:54;29.87;;;17.57;;
46363;SDS011;32071;49.036;9.344;2024-02-28T05:53:20;29.30;;;16.93;;
46363;SDS011;32071;49.036;9.344;2024-02-28T05:55:46;29.80;;;18.17;;
46363;SDS011;32071;49.036;9.344;2024-02-28T05:58:13;32.73;;;19.00;;
46363;SDS011;32071;49.036;9.344;2024-02-28T06:00:38;30.57;;;17.40;;
46363;SDS011;32071;49.036;9.344;2024-02-28T06:03:04;34.53;;;18.30;;
46363;SDS011;32071;49.036;9.344;2024-02-28T06:05:30;28.93;;;16.47;;
46363;SDS011;32071;49.036;9.344;2024-02-28T06:07:55;32.90;;;17.83;;
46363;SDS011;32071;49.036;9.344;2024-02-28T06:10:21;33.73;;;17.60;;
46363;SDS011;32071;49.036;9.344;2024-02-28T06:12:47;31.53;;;18.07;;
46363;SDS011;32071;49.036;9.344;2024-02-28T06:15:12;30.17;;;18.03;;
46363;SDS011;32071;49.036;9.344;2024-02-28T06:17:38;30.80;;;16.97;;
46363;SDS011;32071;49.036;9.344;2024-02-28T06:20:04;29.80;;;16.27;;
46363;SDS011;32071;49.036;9.344;2024-02-28T06:22:31;30.03;;;17.70;;
46363;SDS011;32071;49.036;9.344;2024-02-28T06:24:56;30.07;;;17.33;;
46363;SDS011;32071;49.036;9.344;2024-02-28T06:27:22;28.97;;;17.30;;
46363;SDS011;32071;49.036;9.344;2024-02-28T06:29:48;36.03;;;17.73;;
46363;SDS011;32071;49.036;9.344;2024-02-28T06:32:14;31.77;;;16.63;;
46363;SDS011;32071;49.036;9.344;2024-02-28T06:34:39;27.40;;;15.67;;
46363;SDS011;32071;49.036;9.344;2024-02-28T06:37:06;28.37;;;15.77;;
46363;SDS011;32071;49.036;9.344;2024-02-28T06:39:32;29.37;;;16.77;;
46363;SDS011;32071;49.036;9.344;2024-02-28T06:41:58;25.23;;;15.60;;
46363;SDS011;32071;49.036;9.344;2024-02-28T06:44:23;29.00;;;14.90;;
46363;SDS011;32071;49.036;9.344;2024-02-28T06:46:49;30.10;;;15.93;;
46363;SDS011;32071;49.036;9.344;2024-02-28T06:49:15;28.30;;;16.17;;
46363;SDS011;32071;49.036;9.344;2024-02-28T06:51:41;26.53;;;16.20;;
46363;SDS011;32071;49.036;9.344;2024-02-28T06:54:08;31.20;;;16.63;;
46363;SDS011;32071;49.036;9.344;2024-02-28T06:56:35;30.37;;;17.00;;
46363;SDS011;32071;49.036;9.344;2024-02-28T06:59:01;25.73;;;16.07;;
46363;SDS011;32071;49.036;9.344;2024-02-28T07:01:27;26.43;;;16.33;;
46363;SDS011;32071;49.036;9.344;2024-02-28T07:03:52;25.00;;;15.37;;
46363;SDS011;32071;49.036;9.344;2024-02-28T07:06:18;26.20;;;15.80;;
46363;SDS011;32071;49.036;9.344;2024-02-28T07:08:43;25.97;;;16.13;;
46363;SDS011;32071;49.036;9.344;2024-02-28T07:11:15;25.77;;;16.50;;
46363;SDS011;32071;49.036;9.344;2024-02-28T07:13:41;26.57;;;16.20;;
46363;SDS011;32071;49.036;9.344;2024-02-28T07:16:06;31.63;;;16.07;;
46363;SDS011;32071;49.036;9.344;2024-02-28T07:18:32;28.17;;;15.73;;
46363;SDS011;32071;49.036;9.344;2024-02-28T07:20:58;30.00;;;16.53;;
46363;SDS011;32071;49.036;9.344;2024-02-28T07:23:24;32.20;;;16.33;;
46363;SDS011;32071;49.036;9.344;2024-02-28T07:25:50;30.90;;;16.90;;
46363;SDS011;32071;49.036;9.344;2024-02-28T07:28:16;29.90;;;16.87;;
46363;SDS011;32071;49.036;9.344;2024-02-28T07:30:41;28.93;;;15.50;;
46363;SDS011;32071;49.036;9.344;2024-02-28T07:33:09;28.80;;;15.77;;
46363;SDS011;32071;49.036;9.344;2024-02-28T07:35:43;29.10;;;15.90;;
46363;SDS011;32071;49.036;9.344;2024-02-28T07:38:12;29.83;;;16.07;;
46363;SDS011;32071;49.036;9.344;2024-02-28T07:40:38;28.53;;;16.30;;
46363;SDS011;32071;49.036;9.344;2024-02-28T07:43:04;25.43;;;15.80;;
46363;SDS011;32071;49.036;9.344;2024-02-28T07:45:29;25.73;;;14.23;;
46363;SDS011;32071;49.036;9.344;2024-02-28T07:47:55;29.13;;;16.20;;
46363;SDS011;32071;49.036;9.344;2024-02-28T07:50:20;29.30;;;15.37;;
46363;SDS011;32071;49.036;9.344;2024-02-28T07:52:46;27.07;;;15.63;;
46363;SDS011;32071;49.036;9.344;2024-02-28T07:55:11;27.30;;;16.53;;
46363;SDS011;32071;49.036;9.344;2024-02-28T07:57:37;30.60;;;17.03;;
46363;SDS011;32071;49.036;9.344;2024-02-28T08:00:03;30.00;;;16.50;;
46363;SDS011;32071;49.036;9.344;2024-02-28T08:02:29;27.73;;;15.47;;
46363;SDS011;32071;49.036;9.344;2024-02-28T08:04:56;26.70;;;14.47;;
46363;SDS011;32071;49.036;9.344;2024-02-28T08:07:21;28.10;;;15.37;;
46363;SDS011;32071;49.036;9.344;2024-02-28T08:09:47;27.70;;;15.70;;
46363;SDS011;32071;49.036;9.344;2024-02-28T08:12:12;28.90;;;15.43;;
46363;SDS011;32071;49.036;9.344;2024-02-28T08:14:38;27.73;;;16.77;;
46363;SDS011;32071;49.036;9.344;2024-02-28T08:17:03;28.20;;;15.57;;
46363;SDS011;32071;49.036;9.344;2024-02-28T08:19:29;27.97;;;15.53;;
46363;SDS011;32071;49.036;9.344;2024-02-28T08:21:55;26.63;;;15.53;;
46363;SDS011;32071;49.036;9.344;2024-02-28T08:24:20;27.23;;;16.17;;
46363;SDS011;32071;49.036;9.344;2024-02-28T08:26:46;28.80;;;16.00;;
46363;SDS011;32071;49.036;9.344;2024-02-28T08:29:11;24.93;;;14.23;;
46363;SDS011;32071;49.036;9.344;2024-02-28T08:31:43;27.07;;;15.43;;
46363;SDS011;32071;49.036;9.344;2024-02-28T08:34:09;27.60;;;15.17;;
46363;SDS011;32071;49.036;9.344;2024-02-28T08:36:35;26.63;;;15.50;;
46363;SDS011;32071;49.036;9.344;2024-02-28T08:39:01;25.70;;;14.27;;
46363;SDS011;32071;49.036;9.344;2024-02-28T08:41:29;27.47;;;15.27;;
46363;SDS011;32071;49.036;9.344;2024-02-28T08:43:56;27.27;;;14.40;;
46363;SDS011;32071;49.036;9.344;2024-02-28T08:46:22;28.53;;;14.87;;
46363;SDS011;32071;49.036;9.344;2024-02-28T08:48:47;22.60;;;13.80;;
46363;SDS011;32071;49.036;9.344;2024-02-28T08:51:13;23.47;;;12.60;;
46363;SDS011;32071;49.036;9.344;2024-02-28T08:53:39;24.13;;;13.57;;
46363;SDS011;32071;49.036;9.344;2024-02-28T08:56:05;23.43;;;14.00;;
46363;SDS011;32071;49.036;9.344;2024-02-28T08:58:31;25.00;;;14.87;;
46363;SDS011;32071;49.036;9.344;2024-02-28T09:00:56;26.07;;;14.10;;
46363;SDS011;32071;49.036;9.344;2024-02-28T09:03:22;27.60;;;14.13;;
46363;SDS011;32071;49.036;9.344;2024-02-28T09:05:48;23.43;;;13.13;;
46363;SDS011;32071;49.036;9.344;2024-02-28T09:08:13;24.77;;;14.73;;
46363;SDS011;32071;49.036;9.344;2024-02-28T09:10:39;28.57;;;13.60;;
46363;SDS011;32071;49.036;9.344;2024-02-28T09:13:04;28.50;;;15.43;;
46363;SDS011;32071;49.036;9.344;2024-02-28T09:15:31;24.20;;;13.67;;
46363;SDS011;32071;49.036;9.344;2024-02-28T09:17:59;27.23;;;14.53;;
46363;SDS011;32071;49.036;9.344;2024-02-28T09:20:25;29.23;;;14.37;;
46363;SDS011;32071;49.036;9.344;2024-02-28T09:22:51;26.73;;;15.07;;
46363;SDS011;32071;49.036;9.344;2024-02-28T09:25:17;30.17;;;15.97;;
46363;SDS011;32071;49.036;9.344;2024-02-28T09:27:43;24.57;;;14.00;;
46363;SDS011;32071;49.036;9.344;2024-02-28T09:30:09;33.43;;;14.63;;
46363;SDS011;32071;49.036;9.344;2024-02-28T09:32:35;28.97;;;15.37;;
46363;SDS011;32071;49.036;9.344;2024-02-28T09:35:02;25.57;;;15.47;;
46363;SDS011;32071;49.036;9.344;2024-02-28T09:37:29;32.47;;;16.50;;
46363;SDS011;32071;49.036;9.344;2024-02-28T09:39:54;28.23;;;16.90;;
46363;SDS011;32071;49.036;9.344;2024-02-28T09:42:20;30.37;;;16.80;;
46363;SDS011;32071;49.036;9.344;2024-02-28T09:44:45;29.70;;;15.10;;
46363;SDS011;32071;49.036;9.344;2024-02-28T09:47:11;28.23;;;16.27;;
46363;SDS011;32071;49.036;9.344;2024-02-28T09:49:37;31.17;;;17.00;;
46363;SDS011;32071;49.036;9.344;2024-02-28T09:52:03;32.10;;;16.70;;
46363;SDS011;32071;49.036;9.344;2024-02-28T09:54:29;28.00;;;15.70;;
46363;SDS011;32071;49.036;9.344;2024-02-28T09:56:55;27.30;;;15.90;;
46363;SDS011;32071;49.036;9.344;2024-02-28T09:59:21;25.90;;;14.70;;
46363;SDS011;32071;49.036;9.344;2024-02-28T10:01:53;28.70;;;15.10;;
46363;SDS011;32071;49.036;9.344;2024-02-28T10:04:21;27.67;;;15.83;;
46363;SDS011;32071;49.036;9.344;2024-02-28T10:06:51;27.10;;;15.03;;
46363;SDS011;32071;49.036;9.344;2024-02-28T10:09:16;28.00;;;15.77;;
46363;SDS011;32071;49.036;9.344;2024-02-28T10:11:42;29.00;;;15.77;;
46363;SDS011;32071;49.036;9.344;2024-02-28T10:14:17;29.70;;;15.23;;
46363;SDS011;32071;49.036;9.344;2024-02-28T10:16:44;25.47;;;13.57;;
46363;SDS011;32071;49.036;9.344;2024-02-28T10:19:09;31.53;;;15.63;;
46363;SDS011;32071;49.036;9.344;2024-02-28T10:21:35;24.50;;;14.00;;
46363;SDS011;32071;49.036;9.344;2024-02-28T10:24:00;25.13;;;14.17;;
46363;SDS011;32071;49.036;9.344;2024-02-28T10:26:26;27.47;;;15.50;;
46363;SDS011;32071;49.036;9.344;2024-02-28T10:28:54;25.23;;;13.13;;
46363;SDS011;32071;49.036;9.344;2024-02-28T10:31:20;24.77;;;12.90;;
46363;SDS011;32071;49.036;9.344;2024-02-28T10:33:46;26.70;;;14.07;;
46363;SDS011;32071;49.036;9.344;2024-02-28T10:36:12;19.90;;;11.83;;
46363;SDS011;32071;49.036;9.344;2024-02-28T10:38:37;19.97;;;12.20;;
46363;SDS011;32071;49.036;9.344;2024-02-28T10:41:03;19.03;;;11.60;;
46363;SDS011;32071;49.036;9.344;2024-02-28T10:43:29;21.33;;;13.70;;
46363;SDS011;32071;49.036;9.344;2024-02-28T10:45:58;21.57;;;11.77;;
46363;SDS011;32071;49.036;9.344;2024-02-28T10:48:26;16.23;;;10.43;;
46363;SDS011;32071;49.036;9.344;2024-02-28T10:50:53;21.07;;;12.70;;
46363;SDS011;32071;49.036;9.344;2024-02-28T10:53:22;21.87;;;12.47;;
46363;SDS011;32071;49.036;9.344;2024-02-28T10:56:02;21.00;;;12.70;;
46363;SDS011;32071;49.036;9.344;2024-02-28T10:58:29;17.30;;;11.40;;
46363;SDS011;32071;49.036;9.344;2024-02-28T11:01:00;21.07;;;13.57;;
46363;SDS011;32071;49.036;9.344;2024-02-28T11:03:27;17.67;;;11.23;;
46363;SDS011;32071;49.036;9.344;2024-02-28T11:05:52;19.00;;;11.97;;
46363;SDS011;32071;49.036;9.344;2024-02-28T11:08:22;17.70;;;11.30;;
46363;SDS011;32071;49.036;9.344;2024-02-28T11:11:01;20.90;;;12.03;;
46363;SDS011;32071;49.036;9.344;2024-02-28T11:13:31;19.10;;;11.20;;
46363;SDS011;32071;49.036;9.344;2024-02-28T11:16:06;18.80;;;12.17;;
46363;SDS011;32071;49.036;9.344;2024-02-28T11:18:33;19.70;;;11.90;;
46363;SDS011;32071;49.036;9.344;2024-02-28T11:20:58;21.83;;;12.07;;
46363;SDS011;32071;49.036;9.344;2024-02-28T11:23:24;22.40;;;12.23;;
46363;SDS011;32071;49.036;9.344;2024-02-28T11:25:49;22.00;;;12.90;;
46363;SDS011;32071;49.036;9.344;2024-02-28T11:28:15;23.23;;;12.57;;
46363;SDS011;32071;49.036;9.344;2024-02-28T11:30:41;24.07;;;13.03;;
46363;SDS011;32071;49.036;9.344;2024-02-28T11:33:06;22.87;;;13.43;;
46363;SDS011;32071;49.036;9.344;2024-02-28T11:35:34;25.43;;;13.90;;
46363;SDS011;32071;49.036;9.344;2024-02-28T11:38:00;21.37;;;13.50;;
46363;SDS011;32071;49.036;9.344;2024-02-28T11:40:25;24.50;;;13.20;;
46363;SDS011;32071;49.036;9.344;2024-02-28T11:42:52;26.80;;;15.40;;
46363;SDS011;32071;49.036;9.344;2024-02-28T11:45:19;21.93;;;13.50;;
46363;SDS011;32071;49.036;9.344;2024-02-28T11:47:44;23.53;;;13.83;;
46363;SDS011;32071;49.036;9.344;2024-02-28T11:50:10;19.60;;;12.10;;
46363;SDS011;32071;49.036;9.344;2024-02-28T11:52:36;20.57;;;12.73;;
46363;SDS011;32071;49.036;9.344;2024-02-28T11:55:02;22.20;;;13.83;;
46363;SDS011;32071;49.036;9.344;2024-02-28T11:57:29;24.63;;;12.90;;
46363;SDS011;32071;49.036;9.344;2024-02-28T12:00:01;20.27;;;11.93;;
46363;SDS011;32071;49.036;9.344;2024-02-28T12:02:42;18.77;;;12.43;;
46363;SDS011;32071;49.036;9.344;2024-02-28T12:05:08;18.57;;;12.17;;
46363;SDS011;32071;49.036;9.344;2024-02-28T12:07:34;17.80;;;11.43;;
46363;SDS011;32071;49.036;9.344;2024-02-28T12:10:00;17.50;;;12.70;;
46363;SDS011;32071;49.036;9.344;2024-02-28T12:12:29;18.87;;;12.60;;
46363;SDS011;32071;49.036;9.344;2024-02-28T12:14:58;17.20;;;10.60;;
46363;SDS011;32071;49.036;9.344;2024-02-28T12:17:25;18.20;;;11.77;;
46363;SDS011;32071;49.036;9.344;2024-02-28T12:19:51;20.80;;;11.83;;
46363;SDS011;32071;49.036;9.344;2024-02-28T12:22:17;17.73;;;11.00;;
46363;SDS011;32071;49.036;9.344;2024-02-28T12:24:43;18.30;;;11.30;;
46363;SDS011;32071;49.036;9.344;2024-02-28T12:27:08;16.30;;;9.97;;
46363;SDS011;32071;49.036;9.344;2024-02-28T12:29:34;15.83;;;10.47;;
46363;SDS011;32071;49.036;9.344;2024-02-28T12:31:59;14.60;;;10.00;;
46363;SDS011;32071;49.036;9.344;2024-02-28T12:34:25;17.90;;;11.90;;
46363;SDS011;32071;49.036;9.344;2024-02-28T12:36:51;17.73;;;11.40;;
46363;SDS011;32071;49.036;9.344;2024-02-28T12:39:17;18.13;;;11.63;;
46363;SDS011;32071;49.036;9.344;2024-02-28T12:41:42;17.60;;;10.80;;
46363;SDS011;32071;49.036;9.344;2024-02-28T12:44:08;17.97;;;10.70;;
46363;SDS011;32071;49.036;9.344;2024-02-28T12:46:35;16.10;;;10.00;;
46363;SDS011;32071;49.036;9.344;2024-02-28T12:49:01;17.70;;;11.87;;
46363;SDS011;32071;49.036;9.344;2024-02-28T12:54:02;17.33;;;11.37;;
46363;SDS011;32071;49.036;9.344;2024-02-28T12:56:28;22.33;;;12.10;;
46363;SDS011;32071;49.036;9.344;2024-02-28T12:58:53;17.10;;;10.70;;
46363;SDS011;32071;49.036;9.344;2024-02-28T13:01:19;18.43;;;11.70;;
46363;SDS011;32071;49.036;9.344;2024-02-28T13:03:45;20.50;;;12.00;;
46363;SDS011;32071;49.036;9.344;2024-02-28T13:06:10;15.80;;;10.83;;
46363;SDS011;32071;49.036;9.344;2024-02-28T13:08:36;15.47;;;10.13;;
46363;SDS011;32071;49.036;9.344;2024-02-28T13:11:01;19.33;;;12.63;;
46363;SDS011;32071;49.036;9.344;2024-02-28T13:13:28;16.97;;;10.60;;
46363;SDS011;32071;49.036;9.344;2024-02-28T13:15:54;19.30;;;11.67;;
46363;SDS011;32071;49.036;9.344;2024-02-28T13:18:19;15.30;;;10.10;;
46363;SDS011;32071;49.036;9.344;2024-02-28T13:20:45;16.13;;;10.73;;
46363;SDS011;32071;49.036;9.344;2024-02-28T13:23:10;14.27;;;10.50;;
46363;SDS011;32071;49.036;9.344;2024-02-28T13:25:36;14.30;;;9.73;;
46363;SDS011;32071;49.036;9.344;2024-02-28T13:28:02;16.70;;;10.57;;
46363;SDS011;32071;49.036;9.344;2024-02-28T13:30:27;18.33;;;10.30;;
46363;SDS011;32071;49.036;9.344;2024-02-28T13:32:53;15.63;;;10.03;;
46363;SDS011;32071;49.036;9.344;2024-02-28T13:35:18;16.77;;;9.80;;
46363;SDS011;32071;49.036;9.344;2024-02-28T13:37:44;16.63;;;10.10;;
46363;SDS011;32071;49.036;9.344;2024-02-28T13:40:10;19.03;;;9.93;;
46363;SDS011;32071;49.036;9.344;2024-02-28T13:42:36;14.77;;;9.67;;
46363;SDS011;32071;49.036;9.344;2024-02-28T13:45:04;14.57;;;9.70;;
46363;SDS011;32071;49.036;9.344;2024-02-28T13:47:33;13.57;;;9.60;;
46363;SDS011;32071;49.036;9.344;2024-02-28T13:49:59;16.40;;;10.47;;
46363;SDS011;32071;49.036;9.344;2024-02-28T13:52:25;15.50;;;10.37;;
46363;SDS011;32071;49.036;9.344;2024-02-28T13:54:51;17.90;;;10.37;;
46363;SDS011;32071;49.036;9.344;2024-02-28T13:57:17;13.47;;;9.77;;
46363;SDS011;32071;49.036;9.344;2024-02-28T13:59:43;14.27;;;10.60;;
46363;SDS011;32071;49.036;9.344;2024-02-28T14:02:11;14.60;;;10.03;;
46363;SDS011;32071;49.036;9.344;2024-02-28T14:04:37;16.97;;;11.33;;
46363;SDS011;32071;49.036;9.344;2024-02-28T14:07:03;15.30;;;9.93;;
46363;SDS011;32071;49.036;9.344;2024-02-28T14:09:28;15.20;;;9.50;;
46363;SDS011;32071;49.036;9.344;2024-02-28T14:11:54;13.50;;;9.47;;
46363;SDS011;32071;49.036;9.344;2024-02-28T14:14:20;12.00;;;9.10;;
46363;SDS011;32071;49.036;9.344;2024-02-28T14:16:45;13.53;;;9.70;;